sensor_id;sensor_type;location;lat;lon;timestamp;P1;durP1;ratioP1;P2;durP2;ratioP2
24467;SDS011;12634;50.852;5.676;2023-04-03T00:01:02;6.13;;;2.97;;
24467;SDS011;12634;50.852;5.676;2023-04-03T00:03:30;5.28;;;3.22;;
24467;SDS011;12634;50.852;5.676;2023-04-03T00:05:59;7.68;;;3.50;;
24467;SDS011;12634;50.852;5.676;2023-04-03T00:08:26;5.25;;;3.10;;
24467;SDS011;12634;50.852;5.676;2023-04-03T00:10:55;4.90;;;3.22;;
24467;SDS011;12634;50.852;5.676;2023-04-03T00:13:23;5.22;;;3.33;;
24467;SDS011;12634;50.852;5.676;2023-04-03T00:15:50;6.88;;;3.25;;
24467;SDS011;12634;50.852;5.676;2023-04-03T00:18:17;4.72;;;3.42;;
24467;SDS011;12634;50.852;5.676;2023-04-03T00:20:45;7.10;;;3.75;;
24467;SDS011;12634;50.852;5.676;2023-04-03T00:23:13;5.88;;;3.92;;
24467;SDS011;12634;50.852;5.676;2023-04-03T00:25:41;5.07;;;3.42;;
24467;SDS011;12634;50.852;5.676;2023-04-03T00:28:09;5.20;;;3.90;;
24467;SDS011;12634;50.852;5.676;2023-04-03T00:30:36;5.85;;;3.45;;
24467;SDS011;12634;50.852;5.676;2023-04-03T00:33:03;6.78;;;3.88;;
24467;SDS011;12634;50.852;5.676;2023-04-03T00:35:31;5.68;;;3.95;;
24467;SDS011;12634;50.852;5.676;2023-04-03T00:38:00;6.22;;;3.55;;
24467;SDS011;12634;50.852;5.676;2023-04-03T00:40:32;8.55;;;4.38;;
24467;SDS011;12634;50.852;5.676;2023-04-03T00:43:10;5.10;;;3.83;;
24467;SDS011;12634;50.852;5.676;2023-04-03T00:45:39;8.00;;;3.70;;
24467;SDS011;12634;50.852;5.676;2023-04-03T00:48:08;6.57;;;3.63;;
24467;SDS011;12634;50.852;5.676;2023-04-03T00:50:40;6.55;;;3.72;;
24467;SDS011;12634;50.852;5.676;2023-04-03T00:53:10;7.38;;;3.78;;
24467;SDS011;12634;50.852;5.676;2023-04-03T00:55:41;7.00;;;4.57;;
24467;SDS011;12634;50.852;5.676;2023-04-03T00:58:09;6.25;;;4.15;;
24467;SDS011;12634;50.852;5.676;2023-04-03T01:00:38;5.95;;;4.30;;
24467;SDS011;12634;50.852;5.676;2023-04-03T01:03:08;6.45;;;4.45;;
24467;SDS011;12634;50.852;5.676;2023-04-03T01:05:35;4.80;;;3.70;;
24467;SDS011;12634;50.852;5.676;2023-04-03T01:08:02;7.65;;;4.32;;
24467;SDS011;12634;50.852;5.676;2023-04-03T01:10:30;5.50;;;4.25;;
24467;SDS011;12634;50.852;5.676;2023-04-03T01:12:58;7.47;;;4.55;;
24467;SDS011;12634;50.852;5.676;2023-04-03T01:15:27;6.43;;;4.20;;
24467;SDS011;12634;50.852;5.676;2023-04-03T01:18:00;6.35;;;4.57;;
24467;SDS011;12634;50.852;5.676;2023-04-03T01:20:50;8.43;;;4.82;;
24467;SDS011;12634;50.852;5.676;2023-04-03T01:23:52;6.82;;;4.85;;
24467;SDS011;12634;50.852;5.676;2023-04-03T01:26:26;7.50;;;3.90;;
24467;SDS011;12634;50.852;5.676;2023-04-03T01:28:55;6.20;;;4.35;;
24467;SDS011;12634;50.852;5.676;2023-04-03T01:31:26;7.28;;;4.60;;
24467;SDS011;12634;50.852;5.676;2023-04-03T01:33:57;5.60;;;4.20;;
24467;SDS011;12634;50.852;5.676;2023-04-03T01:36:25;6.88;;;4.07;;
24467;SDS011;12634;50.852;5.676;2023-04-03T01:38:54;9.00;;;4.80;;
24467;SDS011;12634;50.852;5.676;2023-04-03T01:41:23;5.57;;;4.57;;
24467;SDS011;12634;50.852;5.676;2023-04-03T01:43:50;9.23;;;4.88;;
24467;SDS011;12634;50.852;5.676;2023-04-03T01:46:18;8.57;;;5.05;;
24467;SDS011;12634;50.852;5.676;2023-04-03T01:48:46;7.07;;;5.15;;
24467;SDS011;12634;50.852;5.676;2023-04-03T01:51:15;13.55;;;5.85;;
24467;SDS011;12634;50.852;5.676;2023-04-03T01:53:42;7.55;;;5.53;;
24467;SDS011;12634;50.852;5.676;2023-04-03T01:56:10;8.80;;;5.50;;
24467;SDS011;12634;50.852;5.676;2023-04-03T01:58:37;8.70;;;5.03;;
24467;SDS011;12634;50.852;5.676;2023-04-03T02:01:04;6.28;;;5.35;;
24467;SDS011;12634;50.852;5.676;2023-04-03T02:03:31;8.30;;;5.93;;
24467;SDS011;12634;50.852;5.676;2023-04-03T02:05:58;7.63;;;5.55;;
24467;SDS011;12634;50.852;5.676;2023-04-03T02:08:27;9.43;;;5.20;;
24467;SDS011;12634;50.852;5.676;2023-04-03T02:10:54;7.63;;;6.25;;
24467;SDS011;12634;50.852;5.676;2023-04-03T02:13:21;6.50;;;5.20;;
24467;SDS011;12634;50.852;5.676;2023-04-03T02:15:49;8.95;;;5.72;;
24467;SDS011;12634;50.852;5.676;2023-04-03T02:18:16;6.95;;;5.15;;
24467;SDS011;12634;50.852;5.676;2023-04-03T02:20:43;6.93;;;5.38;;
24467;SDS011;12634;50.852;5.676;2023-04-03T02:23:10;8.55;;;5.75;;
24467;SDS011;12634;50.852;5.676;2023-04-03T02:25:39;8.30;;;5.20;;
24467;SDS011;12634;50.852;5.676;2023-04-03T02:28:06;5.72;;;4.95;;
24467;SDS011;12634;50.852;5.676;2023-04-03T02:30:33;8.18;;;4.85;;
24467;SDS011;12634;50.852;5.676;2023-04-03T02:33:00;10.07;;;4.85;;
24467;SDS011;12634;50.852;5.676;2023-04-03T02:35:28;5.95;;;5.13;;
24467;SDS011;12634;50.852;5.676;2023-04-03T02:37:55;7.40;;;5.38;;
24467;SDS011;12634;50.852;5.676;2023-04-03T02:40:22;6.32;;;4.50;;
24467;SDS011;12634;50.852;5.676;2023-04-03T02:42:51;6.72;;;5.05;;
24467;SDS011;12634;50.852;5.676;2023-04-03T02:45:18;6.88;;;4.82;;
24467;SDS011;12634;50.852;5.676;2023-04-03T02:47:45;7.97;;;4.95;;
24467;SDS011;12634;50.852;5.676;2023-04-03T02:50:12;7.13;;;4.38;;
24467;SDS011;12634;50.852;5.676;2023-04-03T02:52:39;8.00;;;4.95;;
24467;SDS011;12634;50.852;5.676;2023-04-03T02:55:07;8.32;;;5.10;;
24467;SDS011;12634;50.852;5.676;2023-04-03T02:57:34;8.13;;;5.72;;
24467;SDS011;12634;50.852;5.676;2023-04-03T03:00:03;8.15;;;5.57;;
24467;SDS011;12634;50.852;5.676;2023-04-03T03:02:31;8.00;;;5.63;;
24467;SDS011;12634;50.852;5.676;2023-04-03T03:04:58;8.20;;;5.68;;
24467;SDS011;12634;50.852;5.676;2023-04-03T03:07:25;11.27;;;6.15;;
24467;SDS011;12634;50.852;5.676;2023-04-03T03:09:53;9.10;;;5.78;;
24467;SDS011;12634;50.852;5.676;2023-04-03T03:12:20;8.38;;;5.50;;
24467;SDS011;12634;50.852;5.676;2023-04-03T03:14:49;7.75;;;5.88;;
24467;SDS011;12634;50.852;5.676;2023-04-03T03:17:18;9.70;;;5.90;;
24467;SDS011;12634;50.852;5.676;2023-04-03T03:19:45;10.40;;;5.85;;
24467;SDS011;12634;50.852;5.676;2023-04-03T03:22:12;8.00;;;6.07;;
24467;SDS011;12634;50.852;5.676;2023-04-03T03:24:39;10.07;;;5.57;;
24467;SDS011;12634;50.852;5.676;2023-04-03T03:27:06;9.10;;;5.43;;
24467;SDS011;12634;50.852;5.676;2023-04-03T03:29:33;7.93;;;5.30;;
24467;SDS011;12634;50.852;5.676;2023-04-03T03:32:00;7.47;;;5.05;;
24467;SDS011;12634;50.852;5.676;2023-04-03T03:34:29;6.93;;;4.75;;
24467;SDS011;12634;50.852;5.676;2023-04-03T03:36:56;9.00;;;5.13;;
24467;SDS011;12634;50.852;5.676;2023-04-03T03:39:23;8.57;;;5.85;;
24467;SDS011;12634;50.852;5.676;2023-04-03T03:41:50;7.82;;;5.00;;
24467;SDS011;12634;50.852;5.676;2023-04-03T03:44:18;9.50;;;6.22;;
24467;SDS011;12634;50.852;5.676;2023-04-03T03:46:46;6.65;;;5.45;;
24467;SDS011;12634;50.852;5.676;2023-04-03T03:49:13;9.10;;;5.93;;
24467;SDS011;12634;50.852;5.676;2023-04-03T03:51:41;6.47;;;5.28;;
24467;SDS011;12634;50.852;5.676;2023-04-03T03:54:09;7.88;;;5.50;;
24467;SDS011;12634;50.852;5.676;2023-04-03T03:56:36;7.65;;;5.05;;
24467;SDS011;12634;50.852;5.676;2023-04-03T03:59:04;9.10;;;5.50;;
24467;SDS011;12634;50.852;5.676;2023-04-03T04:01:31;11.68;;;6.43;;
24467;SDS011;12634;50.852;5.676;2023-04-03T04:03:59;8.13;;;5.93;;
24467;SDS011;12634;50.852;5.676;2023-04-03T04:06:26;7.25;;;5.43;;
24467;SDS011;12634;50.852;5.676;2023-04-03T04:08:54;8.98;;;5.32;;
24467;SDS011;12634;50.852;5.676;2023-04-03T04:11:21;7.72;;;5.85;;
24467;SDS011;12634;50.852;5.676;2023-04-03T04:13:48;8.07;;;5.85;;
24467;SDS011;12634;50.852;5.676;2023-04-03T04:16:15;9.30;;;5.53;;
24467;SDS011;12634;50.852;5.676;2023-04-03T04:18:42;9.63;;;6.15;;
24467;SDS011;12634;50.852;5.676;2023-04-03T04:21:10;9.45;;;5.80;;
24467;SDS011;12634;50.852;5.676;2023-04-03T04:23:37;7.95;;;5.88;;
24467;SDS011;12634;50.852;5.676;2023-04-03T04:26:05;8.00;;;5.18;;
24467;SDS011;12634;50.852;5.676;2023-04-03T04:28:33;7.10;;;5.57;;
24467;SDS011;12634;50.852;5.676;2023-04-03T04:31:00;8.02;;;5.70;;
24467;SDS011;12634;50.852;5.676;2023-04-03T04:33:27;9.27;;;5.88;;
24467;SDS011;12634;50.852;5.676;2023-04-03T04:35:54;7.82;;;5.47;;
24467;SDS011;12634;50.852;5.676;2023-04-03T04:38:21;8.02;;;5.95;;
24467;SDS011;12634;50.852;5.676;2023-04-03T04:40:48;9.05;;;6.18;;
24467;SDS011;12634;50.852;5.676;2023-04-03T04:43:17;6.22;;;5.43;;
24467;SDS011;12634;50.852;5.676;2023-04-03T04:45:44;9.20;;;6.15;;
24467;SDS011;12634;50.852;5.676;2023-04-03T04:48:11;9.77;;;6.22;;
24467;SDS011;12634;50.852;5.676;2023-04-03T04:50:38;7.25;;;6.03;;
24467;SDS011;12634;50.852;5.676;2023-04-03T04:53:06;8.75;;;6.93;;
24467;SDS011;12634;50.852;5.676;2023-04-03T04:55:33;8.45;;;6.75;;
24467;SDS011;12634;50.852;5.676;2023-04-03T04:58:00;12.02;;;9.07;;
24467;SDS011;12634;50.852;5.676;2023-04-03T05:00:29;10.55;;;8.90;;
24467;SDS011;12634;50.852;5.676;2023-04-03T05:02:56;15.00;;;10.20;;
24467;SDS011;12634;50.852;5.676;2023-04-03T05:05:23;13.05;;;9.32;;
24467;SDS011;12634;50.852;5.676;2023-04-03T05:07:50;12.73;;;9.60;;
24467;SDS011;12634;50.852;5.676;2023-04-03T05:10:17;17.52;;;10.45;;
24467;SDS011;12634;50.852;5.676;2023-04-03T05:12:45;15.95;;;10.27;;
24467;SDS011;12634;50.852;5.676;2023-04-03T05:15:12;12.32;;;10.02;;
24467;SDS011;12634;50.852;5.676;2023-04-03T05:17:41;13.63;;;9.35;;
24467;SDS011;12634;50.852;5.676;2023-04-03T05:20:08;13.75;;;10.82;;
24467;SDS011;12634;50.852;5.676;2023-04-03T05:22:36;15.75;;;12.57;;
24467;SDS011;12634;50.852;5.676;2023-04-03T05:25:04;15.90;;;12.75;;
24467;SDS011;12634;50.852;5.676;2023-04-03T05:27:32;15.10;;;12.18;;
24467;SDS011;12634;50.852;5.676;2023-04-03T05:29:59;12.95;;;10.50;;
24467;SDS011;12634;50.852;5.676;2023-04-03T05:32:26;12.32;;;9.70;;
24467;SDS011;12634;50.852;5.676;2023-04-03T05:34:55;13.27;;;10.93;;
24467;SDS011;12634;50.852;5.676;2023-04-03T05:37:22;14.32;;;9.70;;
24467;SDS011;12634;50.852;5.676;2023-04-03T05:39:49;17.27;;;9.77;;
24467;SDS011;12634;50.852;5.676;2023-04-03T05:42:16;13.95;;;9.02;;
24467;SDS011;12634;50.852;5.676;2023-04-03T05:44:43;13.50;;;8.40;;
24467;SDS011;12634;50.852;5.676;2023-04-03T05:47:12;12.07;;;8.70;;
24467;SDS011;12634;50.852;5.676;2023-04-03T05:49:39;9.98;;;8.48;;
24467;SDS011;12634;50.852;5.676;2023-04-03T05:52:09;11.38;;;8.15;;
24467;SDS011;12634;50.852;5.676;2023-04-03T05:54:44;15.70;;;8.63;;
24467;SDS011;12634;50.852;5.676;2023-04-03T05:57:13;13.52;;;8.98;;
24467;SDS011;12634;50.852;5.676;2023-04-03T05:59:41;10.77;;;7.88;;
24467;SDS011;12634;50.852;5.676;2023-04-03T06:02:09;10.90;;;7.63;;
24467;SDS011;12634;50.852;5.676;2023-04-03T06:04:37;11.32;;;8.85;;
24467;SDS011;12634;50.852;5.676;2023-04-03T06:07:05;12.25;;;7.80;;
24467;SDS011;12634;50.852;5.676;2023-04-03T06:09:34;11.45;;;7.00;;
24467;SDS011;12634;50.852;5.676;2023-04-03T06:12:01;11.95;;;6.50;;
24467;SDS011;12634;50.852;5.676;2023-04-03T06:14:28;9.63;;;6.53;;
24467;SDS011;12634;50.852;5.676;2023-04-03T06:16:55;9.05;;;6.57;;
24467;SDS011;12634;50.852;5.676;2023-04-03T06:19:23;8.48;;;6.35;;
24467;SDS011;12634;50.852;5.676;2023-04-03T06:21:51;10.20;;;5.95;;
24467;SDS011;12634;50.852;5.676;2023-04-03T06:24:18;9.32;;;6.13;;
24467;SDS011;12634;50.852;5.676;2023-04-03T06:26:48;8.93;;;6.03;;
24467;SDS011;12634;50.852;5.676;2023-04-03T06:29:16;8.55;;;5.60;;
24467;SDS011;12634;50.852;5.676;2023-04-03T06:31:43;9.43;;;5.45;;
24467;SDS011;12634;50.852;5.676;2023-04-03T06:34:11;8.77;;;5.40;;
24467;SDS011;12634;50.852;5.676;2023-04-03T06:36:39;7.40;;;5.00;;
24467;SDS011;12634;50.852;5.676;2023-04-03T06:39:06;8.93;;;4.60;;
24467;SDS011;12634;50.852;5.676;2023-04-03T06:41:34;9.90;;;4.65;;
24467;SDS011;12634;50.852;5.676;2023-04-03T06:44:03;6.53;;;4.10;;
24467;SDS011;12634;50.852;5.676;2023-04-03T06:46:30;8.45;;;4.32;;
24467;SDS011;12634;50.852;5.676;2023-04-03T06:48:57;9.30;;;4.43;;
24467;SDS011;12634;50.852;5.676;2023-04-03T06:51:25;8.68;;;4.30;;
24467;SDS011;12634;50.852;5.676;2023-04-03T06:53:54;7.05;;;4.43;;
24467;SDS011;12634;50.852;5.676;2023-04-03T06:56:22;7.13;;;3.92;;
24467;SDS011;12634;50.852;5.676;2023-04-03T06:58:50;6.85;;;3.72;;
24467;SDS011;12634;50.852;5.676;2023-04-03T07:01:21;7.13;;;3.95;;
24467;SDS011;12634;50.852;5.676;2023-04-03T07:03:48;6.65;;;3.60;;
24467;SDS011;12634;50.852;5.676;2023-04-03T07:06:15;8.68;;;4.32;;
24467;SDS011;12634;50.852;5.676;2023-04-03T07:08:44;6.78;;;3.40;;
24467;SDS011;12634;50.852;5.676;2023-04-03T07:11:13;6.70;;;3.70;;
24467;SDS011;12634;50.852;5.676;2023-04-03T07:13:40;6.93;;;3.33;;
24467;SDS011;12634;50.852;5.676;2023-04-03T07:16:07;7.32;;;3.50;;
24467;SDS011;12634;50.852;5.676;2023-04-03T07:18:37;6.38;;;3.28;;
24467;SDS011;12634;50.852;5.676;2023-04-03T07:21:04;7.47;;;3.70;;
24467;SDS011;12634;50.852;5.676;2023-04-03T07:23:32;7.55;;;3.30;;
24467;SDS011;12634;50.852;5.676;2023-04-03T07:25:59;4.97;;;3.25;;
24467;SDS011;12634;50.852;5.676;2023-04-03T07:28:27;5.60;;;3.20;;
24467;SDS011;12634;50.852;5.676;2023-04-03T07:30:59;5.93;;;3.17;;
24467;SDS011;12634;50.852;5.676;2023-04-03T07:33:27;5.30;;;3.22;;
24467;SDS011;12634;50.852;5.676;2023-04-03T07:35:56;6.72;;;3.10;;
24467;SDS011;12634;50.852;5.676;2023-04-03T07:38:23;5.90;;;3.35;;
24467;SDS011;12634;50.852;5.676;2023-04-03T07:40:51;7.40;;;2.85;;
24467;SDS011;12634;50.852;5.676;2023-04-03T07:43:19;7.30;;;2.95;;
24467;SDS011;12634;50.852;5.676;2023-04-03T07:45:50;5.38;;;2.80;;
24467;SDS011;12634;50.852;5.676;2023-04-03T07:48:19;6.43;;;2.80;;
24467;SDS011;12634;50.852;5.676;2023-04-03T07:50:47;6.05;;;2.80;;
24467;SDS011;12634;50.852;5.676;2023-04-03T07:53:16;5.45;;;2.83;;
24467;SDS011;12634;50.852;5.676;2023-04-03T07:55:45;5.07;;;2.80;;
24467;SDS011;12634;50.852;5.676;2023-04-03T07:58:13;9.55;;;2.70;;
24467;SDS011;12634;50.852;5.676;2023-04-03T08:00:43;7.22;;;2.55;;
24467;SDS011;12634;50.852;5.676;2023-04-03T08:03:10;6.65;;;2.45;;
24467;SDS011;12634;50.852;5.676;2023-04-03T08:05:38;8.60;;;2.85;;
24467;SDS011;12634;50.852;5.676;2023-04-03T08:08:06;6.70;;;2.88;;
24467;SDS011;12634;50.852;5.676;2023-04-03T08:10:35;8.02;;;2.90;;
24467;SDS011;12634;50.852;5.676;2023-04-03T08:13:02;5.82;;;2.80;;
24467;SDS011;12634;50.852;5.676;2023-04-03T08:15:30;7.43;;;3.20;;
24467;SDS011;12634;50.852;5.676;2023-04-03T08:17:58;4.43;;;2.50;;
24467;SDS011;12634;50.852;5.676;2023-04-03T08:20:27;3.97;;;2.25;;
24467;SDS011;12634;50.852;5.676;2023-04-03T08:22:54;4.72;;;2.25;;
24467;SDS011;12634;50.852;5.676;2023-04-03T08:25:22;5.50;;;2.20;;
24467;SDS011;12634;50.852;5.676;2023-04-03T08:27:51;6.38;;;2.10;;
24467;SDS011;12634;50.852;5.676;2023-04-03T08:30:18;5.13;;;2.00;;
24467;SDS011;12634;50.852;5.676;2023-04-03T08:32:45;6.20;;;1.80;;
24467;SDS011;12634;50.852;5.676;2023-04-03T08:35:12;6.40;;;2.20;;
24467;SDS011;12634;50.852;5.676;2023-04-03T08:37:40;5.55;;;2.25;;
24467;SDS011;12634;50.852;5.676;2023-04-03T08:40:08;4.93;;;2.17;;
24467;SDS011;12634;50.852;5.676;2023-04-03T08:42:42;5.00;;;1.85;;
24467;SDS011;12634;50.852;5.676;2023-04-03T08:45:19;6.93;;;2.15;;
24467;SDS011;12634;50.852;5.676;2023-04-03T08:47:55;4.07;;;1.75;;
24467;SDS011;12634;50.852;5.676;2023-04-03T08:50:28;5.22;;;2.03;;
24467;SDS011;12634;50.852;5.676;2023-04-03T08:53:00;6.10;;;2.30;;
24467;SDS011;12634;50.852;5.676;2023-04-03T08:55:31;5.57;;;1.80;;
24467;SDS011;12634;50.852;5.676;2023-04-03T08:58:01;4.85;;;1.67;;
24467;SDS011;12634;50.852;5.676;2023-04-03T09:00:32;2.92;;;1.20;;
24467;SDS011;12634;50.852;5.676;2023-04-03T09:03:10;5.38;;;1.85;;
24467;SDS011;12634;50.852;5.676;2023-04-03T09:05:39;4.50;;;1.90;;
24467;SDS011;12634;50.852;5.676;2023-04-03T09:08:14;3.88;;;1.48;;
24467;SDS011;12634;50.852;5.676;2023-04-03T09:10:49;3.90;;;1.88;;
24467;SDS011;12634;50.852;5.676;2023-04-03T09:13:22;4.22;;;1.60;;
24467;SDS011;12634;50.852;5.676;2023-04-03T09:15:58;5.28;;;1.70;;
24467;SDS011;12634;50.852;5.676;2023-04-03T09:18:30;5.22;;;1.65;;
24467;SDS011;12634;50.852;5.676;2023-04-03T09:21:06;3.25;;;1.55;;
24467;SDS011;12634;50.852;5.676;2023-04-03T09:23:41;6.18;;;1.80;;
24467;SDS011;12634;50.852;5.676;2023-04-03T09:26:13;5.15;;;1.77;;
24467;SDS011;12634;50.852;5.676;2023-04-03T09:28:44;4.38;;;1.73;;
24467;SDS011;12634;50.852;5.676;2023-04-03T09:31:16;4.28;;;1.42;;
24467;SDS011;12634;50.852;5.676;2023-04-03T09:33:47;4.25;;;2.10;;
24467;SDS011;12634;50.852;5.676;2023-04-03T09:39:05;5.55;;;1.60;;
24467;SDS011;12634;50.852;5.676;2023-04-03T09:41:36;3.72;;;1.45;;
24467;SDS011;12634;50.852;5.676;2023-04-03T09:44:04;4.28;;;1.70;;
24467;SDS011;12634;50.852;5.676;2023-04-03T09:46:48;4.72;;;1.63;;
24467;SDS011;12634;50.852;5.676;2023-04-03T09:49:16;3.83;;;1.50;;
24467;SDS011;12634;50.852;5.676;2023-04-03T09:51:45;4.20;;;1.55;;
24467;SDS011;12634;50.852;5.676;2023-04-03T09:54:25;4.22;;;1.50;;
24467;SDS011;12634;50.852;5.676;2023-04-03T09:57:05;4.15;;;1.80;;
24467;SDS011;12634;50.852;5.676;2023-04-03T09:59:40;6.40;;;1.90;;
24467;SDS011;12634;50.852;5.676;2023-04-03T10:02:22;5.35;;;1.80;;
24467;SDS011;12634;50.852;5.676;2023-04-03T10:05:01;4.00;;;1.77;;
24467;SDS011;12634;50.852;5.676;2023-04-03T10:07:33;4.72;;;1.67;;
24467;SDS011;12634;50.852;5.676;2023-04-03T10:10:14;5.10;;;1.63;;
24467;SDS011;12634;50.852;5.676;2023-04-03T10:12:45;3.90;;;1.45;;
24467;SDS011;12634;50.852;5.676;2023-04-03T10:15:12;4.63;;;1.35;;
24467;SDS011;12634;50.852;5.676;2023-04-03T10:17:47;3.20;;;1.40;;
24467;SDS011;12634;50.852;5.676;2023-04-03T10:20:31;5.35;;;1.45;;
24467;SDS011;12634;50.852;5.676;2023-04-03T10:23:05;6.20;;;1.67;;
24467;SDS011;12634;50.852;5.676;2023-04-03T10:25:43;4.85;;;1.63;;
24467;SDS011;12634;50.852;5.676;2023-04-03T10:28:20;3.58;;;1.50;;
24467;SDS011;12634;50.852;5.676;2023-04-03T10:30:57;4.18;;;1.70;;
24467;SDS011;12634;50.852;5.676;2023-04-03T10:33:36;5.30;;;1.60;;
24467;SDS011;12634;50.852;5.676;2023-04-03T10:36:17;4.63;;;1.20;;
24467;SDS011;12634;50.852;5.676;2023-04-03T10:38:54;3.88;;;1.25;;
24467;SDS011;12634;50.852;5.676;2023-04-03T10:41:31;5.82;;;1.55;;
24467;SDS011;12634;50.852;5.676;2023-04-03T10:44:08;3.65;;;1.17;;
24467;SDS011;12634;50.852;5.676;2023-04-03T10:46:43;4.03;;;1.10;;
24467;SDS011;12634;50.852;5.676;2023-04-03T10:49:19;4.72;;;1.50;;
24467;SDS011;12634;50.852;5.676;2023-04-03T10:51:58;3.17;;;1.10;;
24467;SDS011;12634;50.852;5.676;2023-04-03T10:54:33;3.33;;;1.20;;
24467;SDS011;12634;50.852;5.676;2023-04-03T10:57:05;4.10;;;1.27;;
24467;SDS011;12634;50.852;5.676;2023-04-03T10:59:35;2.30;;;1.00;;
24467;SDS011;12634;50.852;5.676;2023-04-03T11:02:11;3.55;;;1.45;;
24467;SDS011;12634;50.852;5.676;2023-04-03T11:04:46;4.03;;;1.17;;
24467;SDS011;12634;50.852;5.676;2023-04-03T11:07:18;1.95;;;0.95;;
24467;SDS011;12634;50.852;5.676;2023-04-03T11:09:49;3.70;;;1.33;;
24467;SDS011;12634;50.852;5.676;2023-04-03T11:12:18;2.30;;;0.98;;
24467;SDS011;12634;50.852;5.676;2023-04-03T11:14:51;2.42;;;1.05;;
24467;SDS011;12634;50.852;5.676;2023-04-03T11:17:23;6.57;;;1.42;;
24467;SDS011;12634;50.852;5.676;2023-04-03T11:19:59;3.53;;;1.30;;
24467;SDS011;12634;50.852;5.676;2023-04-03T11:22:32;4.35;;;1.10;;
24467;SDS011;12634;50.852;5.676;2023-04-03T11:25:03;4.38;;;1.25;;
24467;SDS011;12634;50.852;5.676;2023-04-03T11:27:34;4.53;;;1.02;;
24467;SDS011;12634;50.852;5.676;2023-04-03T11:30:07;2.33;;;1.00;;
24467;SDS011;12634;50.852;5.676;2023-04-03T11:35:43;2.80;;;0.90;;
24467;SDS011;12634;50.852;5.676;2023-04-03T11:38:15;3.50;;;1.75;;
24467;SDS011;12634;50.852;5.676;2023-04-03T11:40:48;5.05;;;1.00;;
24467;SDS011;12634;50.852;5.676;2023-04-03T11:43:20;1.85;;;0.70;;
24467;SDS011;12634;50.852;5.676;2023-04-03T11:45:52;4.05;;;0.93;;
24467;SDS011;12634;50.852;5.676;2023-04-03T11:48:47;2.30;;;1.00;;
24467;SDS011;12634;50.852;5.676;2023-04-03T12:03:32;3.40;;;0.85;;
24467;SDS011;12634;50.852;5.676;2023-04-03T12:06:48;3.72;;;1.23;;
24467;SDS011;12634;50.852;5.676;2023-04-03T12:12:44;3.40;;;1.30;;
24467;SDS011;12634;50.852;5.676;2023-04-03T12:21:18;5.03;;;1.40;;
24467;SDS011;12634;50.852;5.676;2023-04-03T12:23:56;2.22;;;1.00;;
24467;SDS011;12634;50.852;5.676;2023-04-03T12:26:27;2.90;;;1.10;;
24467;SDS011;12634;50.852;5.676;2023-04-03T12:29:09;3.65;;;1.10;;
24467;SDS011;12634;50.852;5.676;2023-04-03T12:31:44;3.20;;;1.10;;
24467;SDS011;12634;50.852;5.676;2023-04-03T12:34:21;4.30;;;1.35;;
24467;SDS011;12634;50.852;5.676;2023-04-03T12:37:01;4.60;;;1.10;;
24467;SDS011;12634;50.852;5.676;2023-04-03T12:39:41;3.55;;;1.40;;
24467;SDS011;12634;50.852;5.676;2023-04-03T12:42:21;3.33;;;1.33;;
24467;SDS011;12634;50.852;5.676;2023-04-03T12:45:01;3.45;;;1.02;;
24467;SDS011;12634;50.852;5.676;2023-04-03T12:47:35;3.97;;;1.10;;
24467;SDS011;12634;50.852;5.676;2023-04-03T12:50:13;4.07;;;1.00;;
24467;SDS011;12634;50.852;5.676;2023-04-03T12:52:47;3.85;;;1.27;;
24467;SDS011;12634;50.852;5.676;2023-04-03T12:55:28;3.45;;;1.30;;
24467;SDS011;12634;50.852;5.676;2023-04-03T12:57:55;2.28;;;1.05;;
24467;SDS011;12634;50.852;5.676;2023-04-03T13:00:28;3.63;;;1.38;;
24467;SDS011;12634;50.852;5.676;2023-04-03T13:02:58;4.35;;;1.23;;
24467;SDS011;12634;50.852;5.676;2023-04-03T13:05:26;4.03;;;1.23;;
24467;SDS011;12634;50.852;5.676;2023-04-03T13:07:56;2.67;;;1.30;;
24467;SDS011;12634;50.852;5.676;2023-04-03T13:10:28;4.78;;;1.15;;
24467;SDS011;12634;50.852;5.676;2023-04-03T13:12:56;5.05;;;1.30;;
24467;SDS011;12634;50.852;5.676;2023-04-03T13:15:42;3.13;;;1.27;;
24467;SDS011;12634;50.852;5.676;2023-04-03T13:18:24;3.80;;;1.27;;
24467;SDS011;12634;50.852;5.676;2023-04-03T13:20:53;4.63;;;1.30;;
24467;SDS011;12634;50.852;5.676;2023-04-03T13:23:26;3.05;;;1.20;;
24467;SDS011;12634;50.852;5.676;2023-04-03T13:25:53;3.15;;;1.27;;
24467;SDS011;12634;50.852;5.676;2023-04-03T13:28:23;3.72;;;1.10;;
24467;SDS011;12634;50.852;5.676;2023-04-03T13:30:57;3.95;;;1.20;;
24467;SDS011;12634;50.852;5.676;2023-04-03T13:33:29;4.20;;;1.38;;
24467;SDS011;12634;50.852;5.676;2023-04-03T13:36:00;2.90;;;1.17;;
24467;SDS011;12634;50.852;5.676;2023-04-03T13:38:31;3.42;;;1.23;;
24467;SDS011;12634;50.852;5.676;2023-04-03T13:41:00;3.83;;;1.20;;
24467;SDS011;12634;50.852;5.676;2023-04-03T13:43:31;2.03;;;0.80;;
24467;SDS011;12634;50.852;5.676;2023-04-03T13:46:02;2.90;;;1.20;;
24467;SDS011;12634;50.852;5.676;2023-04-03T13:48:39;2.60;;;1.20;;
24467;SDS011;12634;50.852;5.676;2023-04-03T13:51:17;3.25;;;1.20;;
24467;SDS011;12634;50.852;5.676;2023-04-03T13:53:47;4.03;;;1.30;;
24467;SDS011;12634;50.852;5.676;2023-04-03T13:56:18;2.75;;;1.02;;
24467;SDS011;12634;50.852;5.676;2023-04-03T13:58:53;4.55;;;1.27;;
24467;SDS011;12634;50.852;5.676;2023-04-03T14:01:25;3.47;;;1.33;;
24467;SDS011;12634;50.852;5.676;2023-04-03T14:04:01;3.22;;;1.15;;
24467;SDS011;12634;50.852;5.676;2023-04-03T14:06:37;3.08;;;0.98;;
24467;SDS011;12634;50.852;5.676;2023-04-03T14:09:04;2.42;;;0.88;;
24467;SDS011;12634;50.852;5.676;2023-04-03T14:11:31;4.03;;;1.40;;
24467;SDS011;12634;50.852;5.676;2023-04-03T14:14:01;3.55;;;1.17;;
24467;SDS011;12634;50.852;5.676;2023-04-03T14:16:37;2.83;;;1.10;;
24467;SDS011;12634;50.852;5.676;2023-04-03T14:19:07;4.25;;;1.15;;
24467;SDS011;12634;50.852;5.676;2023-04-03T14:21:44;3.67;;;1.10;;
24467;SDS011;12634;50.852;5.676;2023-04-03T14:24:11;3.63;;;1.08;;
24467;SDS011;12634;50.852;5.676;2023-04-03T14:26:38;2.45;;;1.08;;
24467;SDS011;12634;50.852;5.676;2023-04-03T14:29:06;1.77;;;0.93;;
24467;SDS011;12634;50.852;5.676;2023-04-03T14:31:37;4.13;;;1.30;;
24467;SDS011;12634;50.852;5.676;2023-04-03T14:34:05;3.45;;;1.10;;
24467;SDS011;12634;50.852;5.676;2023-04-03T14:36:32;4.40;;;1.00;;
24467;SDS011;12634;50.852;5.676;2023-04-03T14:39:00;3.65;;;1.10;;
24467;SDS011;12634;50.852;5.676;2023-04-03T14:41:27;2.50;;;0.90;;
24467;SDS011;12634;50.852;5.676;2023-04-03T14:43:54;2.58;;;0.82;;
24467;SDS011;12634;50.852;5.676;2023-04-03T14:46:23;3.13;;;1.00;;
24467;SDS011;12634;50.852;5.676;2023-04-03T14:48:54;5.70;;;1.10;;
24467;SDS011;12634;50.852;5.676;2023-04-03T14:51:21;3.40;;;0.80;;
24467;SDS011;12634;50.852;5.676;2023-04-03T14:53:48;3.05;;;0.82;;
24467;SDS011;12634;50.852;5.676;2023-04-03T14:56:17;1.90;;;0.90;;
24467;SDS011;12634;50.852;5.676;2023-04-03T14:58:47;3.72;;;1.20;;
24467;SDS011;12634;50.852;5.676;2023-04-03T15:01:16;2.35;;;0.90;;
24467;SDS011;12634;50.852;5.676;2023-04-03T15:03:43;3.92;;;0.93;;
24467;SDS011;12634;50.852;5.676;2023-04-03T15:06:12;3.15;;;1.10;;
24467;SDS011;12634;50.852;5.676;2023-04-03T15:08:41;2.15;;;1.00;;
24467;SDS011;12634;50.852;5.676;2023-04-03T15:11:09;2.00;;;0.90;;
24467;SDS011;12634;50.852;5.676;2023-04-03T15:13:37;1.63;;;0.82;;
24467;SDS011;12634;50.852;5.676;2023-04-03T15:16:05;3.50;;;1.33;;
24467;SDS011;12634;50.852;5.676;2023-04-03T15:18:39;2.75;;;1.20;;
24467;SDS011;12634;50.852;5.676;2023-04-03T15:21:06;2.88;;;0.80;;
24467;SDS011;12634;50.852;5.676;2023-04-03T15:23:34;1.90;;;1.00;;
24467;SDS011;12634;50.852;5.676;2023-04-03T15:26:02;3.67;;;0.90;;
24467;SDS011;12634;50.852;5.676;2023-04-03T15:28:30;2.38;;;0.93;;
24467;SDS011;12634;50.852;5.676;2023-04-03T15:31:00;2.67;;;1.10;;